Time;durP1;ratioP1;P1;durP2;ratioP2;P2;SDS_P1;SDS_P2;PMS_P1;PMS_P2;Temp;Humidity;BMP_temperature;BMP_pressure;BME280_temperature;BME280_humidity;BME280_pressure;Samples;Min_cycle;Max_cycle;Signal;HPM_P1;HPM_P2
2022/10/24 00:02:29;;;;;;;25.80;14.65;;;12.10;99.90;;;;;;2603037;54;20781;31
2022/10/24 00:05:04;;;;;;;22.53;17.03;;;12.10;99.90;;;;;;2603162;54;20026;31
2022/10/24 00:07:44;;;;;;;23.95;16.80;;;12.10;99.90;;;;;;2720139;39;20488;31
2022/10/24 00:10:24;;;;;;;29.48;19.77;;;12.40;99.90;;;;;;2603195;54;20065;31
2022/10/24 00:12:59;;;;;;;22.02;15.30;;;12.00;99.90;;;;;;2603028;54;20907;31
2022/10/24 00:15:35;;;;;;;20.52;15.52;;;12.10;99.90;;;;;;2602412;54;20025;31
2022/10/24 00:18:09;;;;;;;23.65;17.02;;;12.10;99.90;;;;;;2603099;54;20026;31
2022/10/24 00:20:44;;;;;;;24.70;17.45;;;12.30;99.90;;;;;;2602291;54;20034;31
2022/10/24 00:23:21;;;;;;;19.75;14.85;;;12.10;99.90;;;;;;2602334;54;20807;31
2022/10/24 00:26:00;;;;;;;19.35;14.68;;;12.00;99.90;;;;;;2603085;54;20916;31
2022/10/24 00:28:36;;;;;;;25.30;16.95;;;12.40;99.90;;;;;;2603079;54;20181;31
2022/10/24 00:31:14;;;;;;;;;;;12.00;99.90;;;;;;2603109;54;20086;31
2022/10/24 00:33:50;;;;;;;24.27;17.00;;;12.10;99.90;;;;;;2621479;47;19985;31
2022/10/24 00:36:26;;;;;;;23.73;16.17;;;12.10;99.90;;;;;;2603159;54;20077;31
2022/10/24 00:39:02;;;;;;;25.88;17.90;;;12.00;99.90;;;;;;2621204;47;20034;31
2022/10/24 00:41:41;;;;;;;20.50;16.35;;;12.00;99.90;;;;;;2621734;47;20838;31
2022/10/24 00:44:18;;;;;;;21.80;15.90;;;12.60;99.90;;;;;;2602995;54;20038;31
2022/10/24 00:46:56;;;;;;;27.20;17.05;;;12.10;99.90;;;;;;2602982;54;20026;31
2022/10/24 00:49:32;;;;;;;19.25;14.35;;;12.10;99.90;;;;;;2621443;47;20026;31
2022/10/24 00:52:10;;;;;;;19.83;14.27;;;12.30;99.90;;;;;;2602778;54;20846;31
2022/10/24 00:54:44;;;;;;;23.25;16.58;;;12.60;99.90;;;;;;2603031;54;20038;31
2022/10/24 00:57:24;;;;;;;24.65;16.80;;;12.10;99.90;;;;;;2602860;54;20808;31
2022/10/24 01:00:00;;;;;;;22.63;15.57;;;12.10;99.90;;;;;;2621174;47;20910;31
2022/10/24 01:02:35;;;;;;;20.73;15.67;;;12.80;99.90;;;;;;2602629;54;20054;31
2022/10/24 01:05:12;;;;;;;20.65;14.98;;;12.10;99.90;;;;;;2621093;47;20026;31
2022/10/24 01:07:53;;;;;;;22.10;16.17;;;12.40;99.90;;;;;;2602844;54;20129;31
2022/10/24 01:10:34;;;;;;;24.50;16.92;;;12.10;99.90;;;;;;2602785;54;20031;31
2022/10/24 01:13:18;;;;;;;21.20;14.20;;;12.10;99.90;;;;;;2602998;54;20829;31
2022/10/24 01:15:55;;;;;;;22.77;15.93;;;12.10;99.90;;;;;;2621861;46;20320;31
2022/10/24 01:18:33;;;;;;;23.87;17.00;;;12.10;99.90;;;;;;2622435;46;20049;31
2022/10/24 01:21:16;;;;;;;22.45;16.63;;;12.10;99.90;;;;;;2720409;39;20416;31
2022/10/24 01:24:15;;;;;;;24.88;16.15;;;12.20;99.90;;;;;;2603497;54;20903;31
2022/10/24 01:26:57;;;;;;;23.08;15.57;;;12.70;99.90;;;;;;2603568;54;20799;31
2022/10/24 01:30:01;;;;;;;24.85;15.45;;;12.10;99.90;;;;;;2603585;54;20887;31
2022/10/24 01:32:43;;;;;;;21.63;16.05;;;12.10;99.90;;;;;;2603637;54;20941;31
2022/10/24 01:35:34;;;;;;;19.65;14.93;;;12.10;99.90;;;;;;2603620;54;20031;31
2022/10/24 01:38:16;;;;;;;20.75;14.05;;;12.10;99.90;;;;;;2603676;54;20048;31
2022/10/24 01:40:56;;;;;;;22.75;14.90;;;12.30;99.90;;;;;;2603592;54;20577;31
2022/10/24 01:43:32;;;;;;;23.58;15.10;;;12.10;99.90;;;;;;2622240;46;20868;31
2022/10/24 01:46:13;;;;;;;22.25;14.90;;;12.10;99.90;;;;;;2603589;54;20030;31
2022/10/24 01:48:53;;;;;;;16.85;12.18;;;12.10;99.90;;;;;;2603562;54;20868;31
2022/10/24 01:51:31;;;;;;;20.15;15.20;;;12.20;99.90;;;;;;2622116;46;20038;31
2022/10/24 01:54:05;;;;;;;17.85;13.40;;;12.40;99.90;;;;;;2603525;54;20064;31
2022/10/24 01:56:41;;;;;;;18.70;13.77;;;12.30;99.90;;;;;;2603776;54;20895;31
2022/10/24 01:59:41;;;;;;;20.65;13.75;;;12.10;99.90;;;;;;2603517;54;20052;31
2022/10/24 02:02:16;;;;;;;17.60;12.38;;;12.10;99.90;;;;;;2603414;54;20034;31
2022/10/24 02:04:58;;;;;;;18.80;14.05;;;12.10;99.90;;;;;;2603361;54;20038;31
2022/10/24 02:07:35;;;;;;;17.65;13.35;;;12.10;99.90;;;;;;2603690;54;20027;31
2022/10/24 02:10:13;;;;;;;19.77;13.60;;;12.10;99.90;;;;;;2603495;54;20030;31
2022/10/24 02:12:51;;;;;;;16.35;12.40;;;12.10;99.90;;;;;;2603410;54;20038;31
2022/10/24 02:15:27;;;;;;;18.23;11.77;;;12.10;99.90;;;;;;2603662;54;20897;31
2022/10/24 02:18:05;;;;;;;13.85;9.90;;;12.10;99.90;;;;;;2701819;39;20559;31
2022/10/24 02:20:45;;;;;;;18.10;12.67;;;12.40;99.90;;;;;;2720510;39;20496;31
2022/10/24 02:23:23;;;;;;;15.00;11.35;;;12.20;99.90;;;;;;2603551;54;20780;31
2022/10/24 02:25:58;;;;;;;16.73;13.07;;;12.20;99.90;;;;;;2603655;54;20030;31
2022/10/24 02:28:34;;;;;;;17.75;13.60;;;12.20;99.90;;;;;;2603329;54;20076;31
2022/10/24 02:31:09;;;;;;;;;;;12.20;99.90;;;;;;2603675;54;20054;31
2022/10/24 02:33:47;;;;;;;13.73;9.85;;;12.20;99.90;;;;;;2621574;46;20814;31
2022/10/24 02:36:27;;;;;;;14.35;10.02;;;12.20;99.90;;;;;;2603264;54;20034;31
2022/10/24 02:39:04;;;;;;;12.50;10.10;;;12.20;99.90;;;;;;2607524;46;20030;31
2022/10/24 02:41:40;;;;;;;13.30;10.88;;;12.50;99.90;;;;;;2603592;54;20034;31
2022/10/24 02:44:18;;;;;;;17.45;12.05;;;12.20;99.90;;;;;;2603495;54;20819;31
2022/10/24 02:46:54;;;;;;;13.20;9.93;;;11.80;99.90;;;;;;2621482;46;20849;31
2022/10/24 02:49:30;;;;;;;18.45;12.40;;;12.20;99.90;;;;;;2603361;54;20879;31
2022/10/24 02:52:09;;;;;;;19.03;13.43;;;12.20;99.90;;;;;;2621674;46;20260;31
2022/10/24 02:54:44;;;;;;;16.85;13.50;;;12.70;99.90;;;;;;2621463;46;20873;31
2022/10/24 02:57:22;;;;;;;19.88;13.52;;;12.30;99.90;;;;;;2603334;54;20037;31
2022/10/24 02:59:57;;;;;;;19.17;12.13;;;12.50;99.90;;;;;;2621940;46;20027;31
2022/10/24 03:02:32;;;;;;;17.25;11.45;;;12.10;99.90;;;;;;2602592;54;20854;31
2022/10/24 03:05:08;;;;;;;12.48;10.07;;;12.10;99.90;;;;;;2622159;46;20085;31
2022/10/24 03:07:45;;;;;;;14.40;10.27;;;12.10;99.90;;;;;;2603180;54;20026;31
2022/10/24 03:10:19;;;;;;;15.77;11.20;;;12.50;99.90;;;;;;2603322;54;20026;31
2022/10/24 03:12:54;;;;;;;15.82;12.20;;;12.20;99.90;;;;;;2603308;54;20026;31
2022/10/24 03:15:30;;;;;;;20.70;13.80;;;12.10;99.90;;;;;;2621811;46;20030;31
2022/10/24 03:18:04;;;;;;;14.05;11.50;;;12.30;99.90;;;;;;2603221;54;20982;31
2022/10/24 03:20:41;;;;;;;18.00;12.30;;;12.10;99.90;;;;;;2603291;54;20030;31
2022/10/24 03:23:20;;;;;;;15.93;11.82;;;12.30;99.90;;;;;;2603265;54;20857;31
2022/10/24 03:25:56;;;;;;;16.40;12.27;;;12.10;99.90;;;;;;2621862;46;20065;31
2022/10/24 03:28:32;;;;;;;20.73;11.98;;;12.00;99.90;;;;;;2603188;54;20037;31
2022/10/24 03:31:08;;;;;;;14.43;10.73;;;12.00;99.90;;;;;;2603337;54;20900;31
2022/10/24 03:33:43;;;;;;;18.88;13.85;;;12.00;99.90;;;;;;2603301;54;20022;31
2022/10/24 03:36:19;;;;;;;16.73;10.75;;;12.00;99.90;;;;;;2603172;54;20862;31
2022/10/24 03:38:59;;;;;;;17.50;13.15;;;12.00;99.90;;;;;;2602571;54;20027;31
2022/10/24 03:41:34;;;;;;;15.48;10.27;;;12.50;99.90;;;;;;2602631;54;20027;31
2022/10/24 03:44:09;;;;;;;16.70;13.03;;;11.90;99.90;;;;;;2603347;54;20030;31
2022/10/24 03:46:46;;;;;;;14.70;11.05;;;12.00;99.90;;;;;;2621893;46;19946;31
2022/10/24 03:49:20;;;;;;;;;;;12.30;99.90;;;;;;2603440;54;20904;31
2022/10/24 03:51:55;;;;;;;12.57;8.90;;;11.90;99.90;;;;;;2603187;54;19946;31
2022/10/24 03:54:33;;;;;;;15.20;10.30;;;11.90;99.90;;;;;;2603211;54;20154;31
2022/10/24 03:57:11;;;;;;;13.07;9.88;;;12.30;99.90;;;;;;2603396;54;20506;31
2022/10/24 03:59:46;;;;;;;18.25;13.25;;;12.30;99.90;;;;;;2603172;54;20093;31
2022/10/24 04:02:24;;;;;;;17.80;12.80;;;11.90;99.90;;;;;;2603218;54;20031;31
2022/10/24 04:05:00;;;;;;;15.80;12.40;;;12.10;99.90;;;;;;2603314;54;20053;31
2022/10/24 04:07:35;;;;;;;15.87;11.03;;;12.40;99.90;;;;;;2602746;54;20121;31
2022/10/24 04:10:16;;;;;;;16.00;11.80;;;12.10;99.90;;;;;;2603046;54;20251;31
2022/10/24 04:12:52;;;;;;;15.80;12.05;;;11.90;99.90;;;;;;2603108;54;21192;31
2022/10/24 04:15:28;;;;;;;17.17;12.15;;;11.90;99.90;;;;;;2621782;46;20833;31
2022/10/24 04:18:03;;;;;;;11.50;9.75;;;11.90;99.90;;;;;;2603194;54;20026;31
2022/10/24 04:20:39;;;;;;;16.60;11.60;;;12.40;99.90;;;;;;2603095;54;20026;31
2022/10/24 04:23:14;;;;;;;16.38;10.38;;;11.90;99.90;;;;;;2603112;54;20834;31
2022/10/24 04:25:52;;;;;;;12.75;9.80;;;12.20;99.90;;;;;;2603062;54;20822;31
2022/10/24 04:28:28;;;;;;;12.98;11.05;;;11.90;99.90;;;;;;2603216;54;20033;31
2022/10/24 04:31:04;;;;;;;14.50;11.13;;;12.00;99.90;;;;;;2602773;54;20116;31
2022/10/24 04:33:40;;;;;;;15.88;11.82;;;11.90;99.90;;;;;;2603086;54;20056;31
2022/10/24 04:36:17;;;;;;;13.05;10.75;;;12.30;99.90;;;;;;2621764;47;20860;31
2022/10/24 04:38:52;;;;;;;15.40;10.95;;;12.10;99.90;;;;;;2603192;54;20027;31
2022/10/24 04:41:30;;;;;;;16.15;11.65;;;11.90;99.90;;;;;;2602996;54;20055;31
2022/10/24 04:44:07;;;;;;;17.38;11.32;;;12.10;99.90;;;;;;2603009;54;20751;31
2022/10/24 04:46:49;;;;;;;14.05;10.73;;;11.60;99.90;;;;;;2603042;54;20932;31
2022/10/24 04:49:25;;;;;;;11.98;8.65;;;12.00;99.90;;;;;;2622171;47;20031;31
2022/10/24 04:52:02;;;;;;;13.95;10.82;;;12.00;99.90;;;;;;2603971;54;20038;31
2022/10/24 04:54:36;;;;;;;12.88;9.93;;;12.60;99.90;;;;;;2621761;46;20822;31
2022/10/24 04:57:17;;;;;;;14.80;11.15;;;11.90;99.90;;;;;;2603707;54;20034;31
2022/10/24 04:59:57;;;;;;;13.63;10.48;;;12.00;99.90;;;;;;2603684;54;19941;31
2022/10/24 05:02:35;;;;;;;13.15;10.52;;;12.00;99.90;;;;;;2622136;46;20027;31
2022/10/24 05:05:10;;;;;;;12.07;10.15;;;12.00;99.90;;;;;;2603709;54;20027;31
2022/10/24 05:07:48;;;;;;;15.85;11.25;;;11.90;99.90;;;;;;2603928;54;20897;31
2022/10/24 05:13:02;;;;;;;16.20;10.82;;;12.00;99.90;;;;;;2603650;54;20030;31
2022/10/24 05:15:38;;;;;;;13.52;9.95;;;11.90;99.90;;;;;;2603870;54;20034;31
2022/10/24 05:18:16;;;;;;;15.90;11.80;;;12.60;99.90;;;;;;2603830;54;20034;31
2022/10/24 05:20:51;;;;;;;12.55;10.02;;;12.20;99.90;;;;;;2603504;54;20033;31
2022/10/24 05:23:26;;;;;;;15.07;10.90;;;12.00;99.90;;;;;;2603478;54;20026;31
2022/10/24 05:26:03;;;;;;;13.93;11.50;;;12.00;99.90;;;;;;2603658;54;20027;31
2022/10/24 05:28:42;;;;;;;122.80;85.45;;;12.00;99.90;;;;;;2603597;54;20904;31
2022/10/24 05:31:23;;;;;;;69.28;50.15;;;12.00;99.90;;;;;;2603884;54;20034;31
2022/10/24 05:33:59;;;;;;;23.20;18.70;;;12.00;99.90;;;;;;2603614;54;20022;31
2022/10/24 05:36:37;;;;;;;53.35;47.60;;;12.30;99.90;;;;;;2603767;54;20077;31
2022/10/24 05:39:11;;;;;;;32.47;28.95;;;12.00;99.90;;;;;;2603575;54;20069;31
2022/10/24 05:41:46;;;;;;;17.67;15.90;;;12.00;99.90;;;;;;2603538;54;20934;31
2022/10/24 05:44:26;;;;;;;15.93;11.77;;;12.00;99.90;;;;;;2603635;54;20026;31
2022/10/24 05:47:00;;;;;;;13.00;11.15;;;12.00;99.90;;;;;;2603546;54;20888;31
2022/10/24 05:49:34;;;;;;;14.07;10.80;;;12.00;99.90;;;;;;2622024;46;20109;31
2022/10/24 05:52:09;;;;;;;13.80;10.57;;;12.00;99.90;;;;;;2603604;54;19935;31
2022/10/24 05:54:46;;;;;;;12.95;8.52;;;12.00;99.90;;;;;;2603560;54;20904;31
2022/10/24 05:57:40;;;;;;;14.25;10.15;;;12.10;99.90;;;;;;2603540;54;20037;31
2022/10/24 06:00:20;;;;;;;13.57;10.60;;;12.00;99.90;;;;;;2603434;54;20025;31
2022/10/24 06:02:55;;;;;;;13.82;9.70;;;12.00;99.90;;;;;;2603334;54;20803;31
2022/10/24 06:05:34;;;;;;;15.07;11.48;;;12.10;99.90;;;;;;2602773;54;20117;31
2022/10/24 06:08:09;;;;;;;13.60;11.45;;;12.00;99.90;;;;;;2603460;54;20085;31
2022/10/24 06:10:44;;;;;;;16.05;12.40;;;12.20;99.90;;;;;;2603291;54;20962;31
2022/10/24 06:13:20;;;;;;;18.60;14.30;;;12.10;99.90;;;;;;2603325;54;20030;31
2022/10/24 06:15:59;;;;;;;20.98;17.45;;;12.10;99.90;;;;;;2603538;54;20037;31
2022/10/24 06:18:34;;;;;;;16.52;12.98;;;12.10;99.90;;;;;;2603592;54;20821;31
2022/10/24 06:21:12;;;;;;;17.25;12.85;;;12.10;99.90;;;;;;2603556;54;20838;31
2022/10/24 06:23:48;;;;;;;12.95;11.23;;;12.30;99.90;;;;;;2603223;54;20918;31
2022/10/24 06:26:25;;;;;;;13.27;10.63;;;12.10;99.90;;;;;;2603553;54;20026;31
2022/10/24 06:28:58;;;;;;;13.27;7.70;;;12.20;99.90;;;;;;2603299;54;20033;31
2022/10/24 06:31:38;;;;;;;15.98;9.73;;;12.20;99.90;;;;;;2603394;54;20910;31
2022/10/24 06:34:14;;;;;;;14.18;10.50;;;12.30;99.90;;;;;;2603305;54;20044;31
2022/10/24 06:36:51;;;;;;;;;;;12.30;99.90;;;;;;2603636;54;20026;31
2022/10/24 06:39:27;;;;;;;17.35;10.80;;;12.30;99.90;;;;;;2603476;54;20712;31
2022/10/24 06:42:06;;;;;;;18.30;11.45;;;12.30;99.90;;;;;;2603559;54;20027;31
2022/10/24 06:44:43;;;;;;;15.25;10.95;;;12.40;99.90;;;;;;2603317;54;20227;31
2022/10/24 06:47:20;;;;;;;;;;;12.50;99.90;;;;;;2603998;54;20828;31
2022/10/24 06:49:55;;;;;;;12.50;9.55;;;12.40;99.90;;;;;;2603328;54;19941;31
2022/10/24 06:52:30;;;;;;;16.00;9.70;;;12.50;99.90;;;;;;2603389;54;20069;31
2022/10/24 06:55:08;;;;;;;19.85;9.75;;;12.60;99.90;;;;;;2617423;46;20892;31
2022/10/24 06:57:43;;;;;;;13.15;9.07;;;12.60;99.90;;;;;;2603413;54;20030;31
2022/10/24 07:00:22;;;;;;;;;;;13.10;99.90;;;;;;2603678;54;20029;31
2022/10/24 07:02:59;;;;;;;12.98;7.40;;;12.70;99.90;;;;;;2603196;54;20803;31
2022/10/24 07:08:10;;;;;;;;;;;12.90;99.90;;;;;;2621870;46;20034;31
2022/10/24 07:10:47;;;;;;;9.48;6.40;;;13.00;99.90;;;;;;2602961;54;20799;31
2022/10/24 07:13:22;;;;;;;11.00;6.32;;;13.10;99.90;;;;;;2603197;54;20037;31
2022/10/24 07:15:59;;;;;;;13.03;6.87;;;13.10;99.90;;;;;;2603013;54;20827;31
2022/10/24 07:18:38;;;;;;;7.60;6.57;;;13.60;99.90;;;;;;2603346;54;21184;31
2022/10/24 07:21:15;;;;;;;11.07;6.60;;;13.60;99.90;;;;;;2603201;54;20030;31
2022/10/24 07:23:54;;;;;;;7.88;6.10;;;13.40;99.90;;;;;;2603191;54;20038;31
2022/10/24 07:26:29;;;;;;;11.95;6.88;;;13.50;99.90;;;;;;2603086;54;20081;31
2022/10/24 07:29:04;;;;;;;12.32;6.07;;;13.60;99.90;;;;;;2621882;46;20027;31
2022/10/24 07:31:42;;;;;;;9.35;6.85;;;13.70;99.90;;;;;;2603372;54;20810;31
2022/10/24 07:34:22;;;;;;;9.35;5.97;;;13.80;99.90;;;;;;2603323;54;20038;31
2022/10/24 07:36:56;;;;;;;9.15;6.85;;;13.90;99.90;;;;;;2603318;54;20027;31
2022/10/24 07:39:31;;;;;;;12.15;6.82;;;14.00;99.90;;;;;;2603269;54;20023;31
2022/10/24 07:42:07;;;;;;;14.75;6.88;;;14.60;99.90;;;;;;2603291;54;20044;31
2022/10/24 07:44:42;;;;;;;;;;;14.20;99.90;;;;;;2622006;46;20026;31
2022/10/24 07:47:18;;;;;;;11.55;6.60;;;14.30;99.90;;;;;;2621817;46;20757;31
2022/10/24 07:49:57;;;;;;;;;;;14.90;99.90;;;;;;2603425;54;20140;31
2022/10/24 07:52:32;;;;;;;9.98;6.90;;;14.50;99.90;;;;;;2603290;54;19941;31
2022/10/24 07:55:07;;;;;;;9.30;5.90;;;14.50;99.90;;;;;;2603000;54;20022;31
2022/10/24 07:57:43;;;;;;;10.55;6.30;;;14.60;99.90;;;;;;2603033;54;20030;31
2022/10/24 08:00:23;;;;;;;7.50;4.90;;;14.70;99.90;;;;;;2603295;54;20144;31
2022/10/24 08:02:58;;;;;;;8.55;4.90;;;14.80;99.90;;;;;;2603348;54;20052;31
2022/10/24 08:05:35;;;;;;;7.47;4.97;;;14.90;99.90;;;;;;2603189;54;20170;31
2022/10/24 08:08:10;;;;;;;5.97;4.30;;;15.00;99.90;;;;;;2603076;54;20251;31
2022/10/24 08:11:09;;;;;;;7.65;5.22;;;15.50;99.90;;;;;;2603267;54;20030;31
2022/10/24 08:13:45;;;;;;;6.07;4.22;;;15.20;99.90;;;;;;2621503;46;20026;31
2022/10/24 08:16:20;;;;;;;7.57;4.07;;;15.50;99.90;;;;;;2603157;54;20030;31
2022/10/24 08:18:57;;;;;;;8.65;4.32;;;15.60;99.90;;;;;;2602572;54;20046;31
2022/10/24 08:21:35;;;;;;;6.78;3.80;;;15.60;99.90;;;;;;2621382;46;20029;31
2022/10/24 08:24:12;;;;;;;8.05;4.15;;;15.50;99.90;;;;;;2602902;54;20053;31
2022/10/24 08:26:47;;;;;;;7.95;3.50;;;15.60;99.90;;;;;;2602450;54;20773;31
2022/10/24 08:29:24;;;;;;;9.15;3.95;;;15.50;99.90;;;;;;2602898;54;20031;31
2022/10/24 08:31:58;;;;;;;8.73;4.28;;;15.70;99.90;;;;;;2621522;47;20027;31
2022/10/24 08:34:35;;;;;;;7.80;3.95;;;15.70;99.90;;;;;;2603028;54;20030;31
2022/10/24 08:37:13;;;;;;;6.47;4.50;;;15.80;99.90;;;;;;2603240;54;20883;31
2022/10/24 08:39:49;;;;;;;4.43;3.35;;;15.90;99.90;;;;;;2602783;54;20082;31
2022/10/24 08:42:24;;;;;;;6.10;4.03;;;16.00;99.90;;;;;;2602952;54;20089;31
2022/10/24 08:44:58;;;;;;;7.90;4.85;;;16.20;99.90;;;;;;2602329;54;22688;31
2022/10/24 08:47:35;;;;;;;5.93;3.30;;;16.10;99.90;;;;;;2603009;54;20844;31
2022/10/24 08:50:15;;;;;;;8.50;3.45;;;16.10;99.90;;;;;;2602220;54;20852;31
2022/10/24 08:52:54;;;;;;;9.52;3.75;;;16.30;99.90;;;;;;2603136;54;20089;31
2022/10/24 08:55:31;;;;;;;6.22;3.05;;;16.30;99.90;;;;;;2602133;54;19935;31
2022/10/24 08:58:27;;;;;;;4.75;3.45;;;16.30;99.90;;;;;;2602727;54;20023;31
2022/10/24 09:01:03;;;;;;;10.80;3.40;;;16.70;99.90;;;;;;2621251;47;20839;31
2022/10/24 09:03:40;;;;;;;9.50;3.22;;;16.50;99.90;;;;;;2603045;54;20038;31
2022/10/24 09:06:31;;;;;;;6.65;2.95;;;16.70;99.90;;;;;;2602851;54;20140;31
2022/10/24 09:09:14;;;;;;;7.97;3.47;;;17.00;99.90;;;;;;2602958;54;20085;31
2022/10/24 09:11:52;;;;;;;6.70;3.20;;;17.60;99.90;;;;;;2602861;54;20886;31
2022/10/24 09:14:28;;;;;;;6.00;3.00;;;17.60;99.90;;;;;;2602972;54;20022;31
2022/10/24 09:17:04;;;;;;;3.50;2.45;;;18.10;99.90;;;;;;2602913;54;20030;31
2022/10/24 09:19:40;;;;;;;6.63;3.05;;;18.40;99.90;;;;;;2603022;54;20125;31
2022/10/24 09:22:16;;;;;;;4.80;2.75;;;18.90;99.90;;;;;;2602905;54;20876;31
2022/10/24 09:24:55;;;;;;;5.15;2.63;;;19.20;99.90;;;;;;2602899;54;20923;31
2022/10/24 09:27:32;;;;;;;7.45;2.60;;;19.50;99.90;;;;;;2602984;54;20034;31
2022/10/24 09:30:07;;;;;;;7.25;2.65;;;19.80;99.90;;;;;;2602723;54;20037;31
2022/10/24 09:32:42;;;;;;;7.05;2.55;;;20.10;99.90;;;;;;2602921;54;20863;31
2022/10/24 09:35:19;;;;;;;6.47;2.30;;;20.40;99.90;;;;;;2603552;54;20868;31
2022/10/24 09:37:55;;;;;;;4.27;2.10;;;20.70;99.90;;;;;;2622382;46;20835;31
2022/10/24 09:40:35;;;;;;;3.57;2.10;;;21.00;99.90;;;;;;2603593;54;20301;31
2022/10/24 09:43:18;;;;;;;4.50;2.17;;;21.30;99.90;;;;;;2603637;54;20022;31
2022/10/24 09:45:53;;;;;;;4.93;2.40;;;21.40;99.90;;;;;;2603485;54;20031;31
2022/10/24 09:48:31;;;;;;;5.77;2.00;;;21.60;99.90;;;;;;2603911;54;20038;31
2022/10/24 09:51:10;;;;;;;3.30;1.80;;;21.80;99.90;;;;;;2603751;54;20242;31
2022/10/24 09:53:45;;;;;;;3.40;1.85;;;22.00;99.90;;;;;;2603547;54;20719;31
2022/10/24 09:56:23;;;;;;;4.60;2.10;;;22.30;99.90;;;;;;2603342;54;20024;31
2022/10/24 09:59:03;;;;;;;5.37;2.27;;;22.40;99.90;;;;;;2603917;54;20033;31
2022/10/24 10:01:37;;;;;;;6.78;2.35;;;22.60;99.90;;;;;;2603595;54;20023;31
2022/10/24 10:04:16;;;;;;;3.42;1.60;;;22.70;99.90;;;;;;2603687;54;20044;31
2022/10/24 10:06:52;;;;;;;5.20;2.15;;;22.80;99.90;;;;;;2622229;46;20893;31
2022/10/24 10:09:33;;;;;;;3.70;1.95;;;22.90;99.90;;;;;;2603496;54;20071;31
2022/10/24 10:12:25;;;;;;;4.00;1.70;;;22.90;99.90;;;;;;2607930;54;20022;31
2022/10/24 10:15:01;;;;;;;4.00;2.10;;;22.90;99.90;;;;;;2622300;46;20053;31
2022/10/24 10:17:35;;;;;;;3.22;2.00;;;22.80;99.90;;;;;;2603589;54;20022;31
2022/10/24 10:20:12;;;;;;;;;;;22.70;99.90;;;;;;2603835;54;20018;31
2022/10/24 10:22:54;;;;;;;4.35;1.75;;;22.60;99.90;;;;;;2603697;54;19934;31
2022/10/24 10:25:31;;;;;;;4.75;1.60;;;22.50;99.90;;;;;;2603697;54;20164;31
2022/10/24 10:28:21;;;;;;;4.05;1.27;;;22.30;99.90;;;;;;2622152;46;20900;31
2022/10/24 10:31:00;;;;;;;6.60;2.00;;;22.30;99.90;;;;;;2603730;54;20215;31
2022/10/24 10:33:41;;;;;;;6.40;1.98;;;22.20;99.90;;;;;;2603292;54;20030;31
2022/10/24 10:36:18;;;;;;;4.65;1.83;;;22.10;99.90;;;;;;2602547;54;20938;31
2022/10/24 10:38:54;;;;;;;5.47;1.88;;;22.00;99.90;;;;;;2603368;54;20027;31
2022/10/24 10:41:39;;;;;;;5.55;2.10;;;21.90;99.90;;;;;;2604348;46;20062;31
2022/10/24 10:44:28;;;;;;;3.33;1.75;;;21.80;99.90;;;;;;2603593;54;20930;31
2022/10/24 10:47:08;;;;;;;5.63;1.93;;;21.80;99.90;;;;;;2603039;54;20161;31
2022/10/24 10:49:43;;;;;;;6.63;1.83;;;21.80;99.90;;;;;;2603686;54;20033;31
2022/10/24 10:52:50;;;;;;;2.28;1.40;;;21.90;99.90;;;;;;2603437;54;20879;31
2022/10/24 10:55:41;;;;;;;3.55;1.50;;;21.90;99.90;;;;;;2605625;46;20758;31
2022/10/24 10:58:22;;;;;;;6.43;2.07;;;22.10;99.90;;;;;;2603408;54;20101;31
2022/10/24 11:01:02;;;;;;;7.50;2.20;;;22.20;99.90;;;;;;2603443;54;20328;31
2022/10/24 11:03:39;;;;;;;4.57;1.70;;;22.30;99.90;;;;;;2603517;54;20830;31
2022/10/24 11:06:27;;;;;;;4.93;2.25;;;22.40;99.90;;;;;;2603543;54;20125;31
2022/10/24 11:09:00;;;;;;;3.60;1.63;;;22.40;99.90;;;;;;2603585;54;20038;31
2022/10/24 11:11:44;;;;;;;7.10;1.80;;;22.40;99.90;;;;;;2603480;54;20142;31
2022/10/24 11:14:27;;;;;;;9.33;2.27;;;22.60;99.90;;;;;;2603447;54;20023;31
2022/10/24 11:17:06;;;;;;;7.00;1.75;;;22.60;99.90;;;;;;2609584;39;21004;31
2022/10/24 11:19:52;;;;;;;4.15;1.80;;;22.60;99.90;;;;;;2603269;54;20920;31
2022/10/24 11:22:29;;;;;;;4.15;1.75;;;22.60;99.90;;;;;;2604370;46;20038;31
2022/10/24 11:25:06;;;;;;;6.93;2.30;;;22.60;99.90;;;;;;2621549;46;20859;31
2022/10/24 11:27:43;;;;;;;4.87;1.50;;;22.50;99.90;;;;;;2603626;54;20038;31
2022/10/24 11:30:20;;;;;;;6.65;1.70;;;22.50;99.90;;;;;;2603239;54;20042;31
2022/10/24 11:33:00;;;;;;;7.65;1.50;;;22.50;99.90;;;;;;2612941;46;20089;31
2022/10/24 11:35:39;;;;;;;5.55;1.75;;;22.50;99.90;;;;;;2612900;46;20085;31
2022/10/24 11:38:16;;;;;;;5.47;1.98;;;22.50;99.90;;;;;;2603307;54;20027;31
2022/10/24 11:40:55;;;;;;;4.18;2.05;;;22.40;99.90;;;;;;2603345;54;20832;31
2022/10/24 11:43:35;;;;;;;5.45;2.05;;;22.50;99.90;;;;;;2603473;54;20898;31
2022/10/24 11:46:14;;;;;;;5.15;1.60;;;22.30;99.90;;;;;;2621917;46;20101;31
2022/10/24 11:48:54;;;;;;;5.07;1.55;;;22.30;99.90;;;;;;2621946;46;20022;31
2022/10/24 11:51:32;;;;;;;5.53;2.00;;;22.20;99.90;;;;;;2622025;46;20026;31
2022/10/24 11:54:07;;;;;;;6.43;1.63;;;22.20;99.90;;;;;;2603155;54;20156;31
2022/10/24 11:56:43;;;;;;;8.77;1.95;;;22.20;99.90;;;;;;2603150;54;20827;31
2022/10/24 11:59:23;;;;;;;5.60;1.80;;;22.20;99.90;;;;;;2615084;46;20030;31
2022/10/24 12:02:31;;;;;;;7.32;1.70;;;22.10;99.90;;;;;;2603460;54;20034;31
2022/10/24 12:05:33;;;;;;;7.05;1.80;;;22.10;99.90;;;;;;2603421;54;20050;31
2022/10/24 12:08:31;;;;;;;5.30;1.60;;;22.10;99.90;;;;;;2603362;54;20026;31
2022/10/24 12:11:17;;;;;;;8.40;2.45;;;22.10;99.90;;;;;;2603179;54;20022;31
2022/10/24 12:14:06;;;;;;;8.07;2.85;;;22.00;99.90;;;;;;2603152;54;20224;31
2022/10/24 12:16:48;;;;;;;9.05;2.10;;;22.00;99.90;;;;;;2621402;46;20073;31
2022/10/24 12:19:27;;;;;;;12.10;2.58;;;21.90;99.90;;;;;;2603326;54;20038;31
2022/10/24 12:22:06;;;;;;;5.80;2.30;;;21.90;99.90;;;;;;2603140;54;20923;31
2022/10/24 12:24:42;;;;;;;4.82;2.10;;;21.90;99.90;;;;;;2603003;54;20792;31
2022/10/24 12:27:23;;;;;;;;;;;21.90;99.90;;;;;;2621964;46;20089;31
2022/10/24 12:30:05;;;;;;;10.52;3.65;;;21.90;99.90;;;;;;2603340;54;19964;31
2022/10/24 12:32:41;;;;;;;11.30;2.40;;;21.90;99.90;;;;;;2603175;54;20022;31
2022/10/24 12:35:36;;;;;;;6.30;2.00;;;21.80;99.90;;;;;;2603048;54;20030;31
2022/10/24 12:38:21;;;;;;;9.00;2.70;;;21.80;99.90;;;;;;2603365;54;20250;31
2022/10/24 12:40:57;;;;;;;7.50;2.35;;;21.70;99.90;;;;;;2622035;47;20886;31
2022/10/24 12:43:34;;;;;;;9.95;2.65;;;21.80;99.90;;;;;;2603008;54;20142;31
2022/10/24 12:46:39;;;;;;;10.55;2.42;;;21.70;99.90;;;;;;2608819;47;20911;31
2022/10/24 12:49:20;;;;;;;10.75;2.50;;;21.70;99.90;;;;;;2603096;54;19942;31
2022/10/24 12:51:59;;;;;;;5.90;2.60;;;21.70;99.90;;;;;;2603310;54;20053;31
2022/10/24 12:55:26;;;;;;;7.75;2.60;;;21.70;99.90;;;;;;2603231;54;20022;31
2022/10/24 12:58:02;;;;;;;9.93;2.75;;;21.70;99.90;;;;;;2602716;54;20089;31
2022/10/24 13:00:40;;;;;;;7.50;2.40;;;21.60;99.90;;;;;;2603234;54;20845;31
2022/10/24 13:03:16;;;;;;;8.68;2.42;;;21.60;99.90;;;;;;2621651;47;20820;31
2022/10/24 13:05:59;;;;;;;9.90;2.60;;;21.60;99.90;;;;;;2602943;54;20904;31
2022/10/24 13:08:44;;;;;;;6.53;2.30;;;21.50;99.90;;;;;;2603223;54;20845;31
2022/10/24 13:11:32;;;;;;;11.50;3.47;;;21.60;99.90;;;;;;2622004;46;20817;31
2022/10/24 13:14:28;;;;;;;8.95;2.72;;;21.60;99.90;;;;;;2603772;54;19947;31
2022/10/24 13:17:05;;;;;;;7.55;2.67;;;21.60;99.90;;;;;;2603716;54;20782;31
2022/10/24 13:19:40;;;;;;;10.98;2.75;;;21.80;99.90;;;;;;2603879;54;20825;31
2022/10/24 13:22:29;;;;;;;11.05;2.50;;;21.50;99.90;;;;;;2603809;54;20018;31
2022/10/24 13:25:21;;;;;;;8.55;3.05;;;21.40;99.90;;;;;;2603880;54;20081;31
2022/10/24 13:27:54;;;;;;;6.88;2.58;;;21.30;99.90;;;;;;2603715;54;20023;31
2022/10/24 13:30:34;;;;;;;9.95;3.35;;;21.20;99.90;;;;;;2603837;54;20030;31
2022/10/24 13:33:38;;;;;;;6.15;2.35;;;21.20;99.90;;;;;;2603650;54;20925;31
2022/10/24 13:36:18;;;;;;;10.07;3.17;;;21.10;99.90;;;;;;2603746;54;20033;31
2022/10/24 13:38:59;;;;;;;5.57;2.40;;;20.90;99.90;;;;;;2603639;54;20838;31
2022/10/24 13:41:37;;;;;;;6.17;2.80;;;20.90;99.90;;;;;;2603451;54;20035;31
2022/10/24 13:44:16;;;;;;;10.07;2.23;;;21.00;99.90;;;;;;2603558;54;20834;31
2022/10/24 13:46:59;;;;;;;6.70;2.20;;;20.80;99.90;;;;;;2603696;54;20258;31
2022/10/24 13:49:36;;;;;;;6.00;2.65;;;20.70;99.90;;;;;;2603753;54;20049;31
2022/10/24 13:52:17;;;;;;;7.35;3.00;;;20.50;99.90;;;;;;2603822;54;20031;31
2022/10/24 13:54:53;;;;;;;8.47;2.37;;;20.60;99.90;;;;;;2603763;54;20026;31
2022/10/24 13:57:32;;;;;;;3.95;2.00;;;20.50;99.90;;;;;;2603721;54;20061;31